Relevés horaires Matro (Suisse)


Relevés horaires à Matro - Mercredi 31 Déc. 2014
Heure UTC1 Température [°C] Vent [km/h] Hum. [%] Pres.4 [hPa] Visi. [Km] Nébu. [octa] Préc.5 [mm] Cond.
2m. Res. Ros. Dir.2 Vit. Moy. Raf.3
23:00 -2.0 -8.8 -9.4 NO 27.8 29.6 38.9 57 850(0.8/3h) -- -- -- --
22:00 -1.9 -8.5 -9.5 NO 25.9 31.5 40.7 56 850(1.7/3h) -- -- -- --
21:00 -2.5 -9.2 -9.9 NNO 25.9 51.9 75.9 57 850(1.7/3h) -- -- -- --
20:00 -2.3 -9.4 -10.0 NO 29.6 40.7 63.0 55 850(1.8/3h) -- -- -- --
19:00 -1.8 -9.7 -9.7 NNO 38.9 51.9 75.9 55 850(1.2/3h) -- -- -- --
18:00 -1.8 -10.7 -9.9 NO 51.9 55.6 77.8 54 850(1.4/3h) -- -- -- --
17:00 -2.3 -11 -9.8 NO 46.3 55.6 72.2 56 850(1.3/3h) -- -- -- --
16:00 -2.3 -10.8 -9.7 NO 44.4 51.9 75.9 57 850(0.9/3h) -- -- -- --
15:00 -2.0 -10.7 -9.5 NO 48.2 51.9 77.8 56 850(0.4/3h) -- -- -- --
14:00 -2.2 -10.9 -9.9 NO 46.3 50.0 68.5 55 850(0.1/3h) -- -- -- --
13:00 -2.3 -10.7 -9.9 NO 42.6 42.6 64.8 56 850(0.2/3h) -- -- -- --
12:00 -2.5 -10.6 -10.5 NO 38.9 50.0 74.1 54 850(0.3/3h) -- -- -- --
11:00 -2.7 -11.4 -10.4 NO 44.4 44.4 68.5 55 850(0.5/3h) -- -- -- --
10:00 -3.3 -12.2 -11.0 NO 44.4 46.3 68.5 55 850(0.8/3h) -- -- -- --
09:00 -4.2 -13.4 -11.1 NO 44.4 50.0 74.1 58 850(1.3/3h) -- -- -- --
08:00 -5.2 -15.2 -11.7 NO 50.0 50.0 72.2 60 850(1.4/3h) -- -- -- --
07:00 -5.2 -14.8 -12.1 NO 44.4 50.0 74.1 58 850(0.6/3h) -- -- -- --
06:00 -5.4 -15.5 -12.0 NO 50.0 63.0 85.2 60 850(-0.8/3h) -- -- -- --
05:00 -5.6 -16.3 -12.6 NO 57.4 57.4 83.3 58 850(-1.5/3h) -- -- -- --
04:00 -6.1 -16.3 -13.1 NO 48.2 48.2 79.6 57 850(-1.2/3h) -- -- -- --
03:00 -6.9 -16.7 -15.7 NNO 40.7 48.2 77.8 49 850(-0.3/3h) -- -- -- --
02:00 -7.1 -17.1 -15.9 NNO 42.6 44.4 72.2 49 850(0.7/3h) -- -- -- --
01:00 -7.3 -16.8 -14.4 NO 37.0 48.2 70.4 57 850(0.6/3h) -- -- -- --
00:00 -6.9 -16.7 -12.1 NNO 40.7 51.9 83.3 66 850(0.3/3h) -- -- -- --

1 Coordinated Universal Time. Actuellement il est 18:00 locale et 16:00 UTC.

2 Le vent souffle depuis la direction indiquée vers la direction oposée.

3 Les rafales max. sont disponible 40 min après l'heure du relevé.

4 Pour les stations d'altitude (plus de 600m) le géopotentiel du niveau le plus proche de la pression obligatoire est indiqué.

5 Les stations disposant d'un diffuseur peuvent indiquer "trace". Cela signifie que des précipitations ont touchés le sol mais que la quantité est inférieure à 0.1 mm.

Copyright

Les données affichées sur cette page sont la propriété exclusive de Météo Suisse.

Récapitulatif de la journée
Température [°C] Vent [km/h] Ensoleillement4 [h] Precipitations totale5 [mm] Pression [Hpa]
Min1 Max.2 Moy.3 Max. Min Max.
-8.6 -1.9 48.6 85.2 4 h 18 min 0 850.0 850.0

1 Température minimale relevée entre 18:00 UTC la veille et 18:00 UTC le jour donné.

2 Température maximale relevée entre 06:00 UTC le jour donné et 06:00 UTC le lendemain.

3 Vent moyen de la journée basé sur les relevés horaires.

4 Ensoleillement en heures relevé entre 06:00 UTC la veille et 06:00 UTC le jour donné.

5 Précipitations totales tombées entre 06:00 UTC la jour donné et 06:00 UTC le lendemain.

Graphiques horaires